createdAt,value
2023-09-09T00:00:44.616Z,10.60
2023-09-09T00:03:11.581Z,10.40
2023-09-09T00:05:38.309Z,9.98
2023-09-09T00:08:05.387Z,9.68
2023-09-09T00:10:36.317Z,10.60
2023-09-09T00:13:04.470Z,10.60
2023-09-09T00:15:32.668Z,10.50
2023-09-09T00:18:01.073Z,10.00
2023-09-09T00:20:36.793Z,10.80
2023-09-09T00:23:09.647Z,10.70
2023-09-09T00:25:37.604Z,10.15
2023-09-09T00:28:05.392Z,10.20
2023-09-09T00:30:32.119Z,10.02
2023-09-09T00:32:59.759Z,10.27
2023-09-09T00:35:26.905Z,10.65
2023-09-09T00:37:53.584Z,10.35
2023-09-09T00:40:20.209Z,10.32
2023-09-09T00:42:46.841Z,11.40
2023-09-09T00:45:13.493Z,10.57
2023-09-09T00:47:40.802Z,10.85
2023-09-09T00:50:11.475Z,10.32
2023-09-09T00:52:43.057Z,10.07
2023-09-09T00:55:12.270Z,10.27
2023-09-09T00:57:38.909Z,10.57
2023-09-09T01:00:12.347Z,9.50
2023-09-09T01:02:40.254Z,9.60
2023-09-09T01:05:08.580Z,10.30
2023-09-09T01:07:49.500Z,10.50
2023-09-09T01:10:20.223Z,10.43
2023-09-09T01:12:46.978Z,9.63
2023-09-09T01:15:14.332Z,9.85
2023-09-09T01:17:41.358Z,10.23
2023-09-09T01:20:15.815Z,9.23
2023-09-09T01:22:44.932Z,11.13
2023-09-09T01:25:13.073Z,9.50
2023-09-09T01:27:40.398Z,10.52
2023-09-09T01:30:08.530Z,10.10
2023-09-09T01:32:35.812Z,10.15
2023-09-09T01:35:08.221Z,10.40
2023-09-09T01:37:35.356Z,10.90
2023-09-09T01:40:11.732Z,11.13
2023-09-09T01:42:39.411Z,10.77
2023-09-09T01:45:06.548Z,9.20
2023-09-09T01:47:33.433Z,9.98
2023-09-09T01:50:03.879Z,10.52
2023-09-09T01:52:30.680Z,9.52
2023-09-09T01:54:57.479Z,10.23
2023-09-09T01:57:27.837Z,10.18
2023-09-09T01:59:55.662Z,10.63
2023-09-09T02:02:22.649Z,10.63
2023-09-09T02:04:58.198Z,11.18
2023-09-09T02:07:24.955Z,10.43
2023-09-09T02:09:51.715Z,10.40
2023-09-09T02:12:20.918Z,10.18
2023-09-09T02:14:51.852Z,9.32
2023-09-09T02:17:19.819Z,10.02
2023-09-09T02:19:47.802Z,10.20
2023-09-09T02:22:17.509Z,10.18
2023-09-09T02:24:44.166Z,10.68
2023-09-09T02:27:10.877Z,9.88
2023-09-09T02:29:40.618Z,9.52
2023-09-09T02:32:09.781Z,10.07
2023-09-09T02:34:43.784Z,10.30
2023-09-09T02:37:21.865Z,9.93
2023-09-09T02:39:52.423Z,9.85
2023-09-09T02:42:26.329Z,10.25
2023-09-09T02:44:55.480Z,10.00
2023-09-09T02:47:30.578Z,10.52
2023-09-09T02:50:00.148Z,9.98
2023-09-09T02:52:32.777Z,11.05
2023-09-09T02:55:01.811Z,10.00
2023-09-09T02:57:28.557Z,10.32
2023-09-09T03:00:07.859Z,10.73
2023-09-09T03:02:48.342Z,11.07
2023-09-09T03:05:21.408Z,10.57
2023-09-09T03:07:56.156Z,9.63
2023-09-09T03:10:29.138Z,10.45
2023-09-09T03:13:00.542Z,10.68
2023-09-09T03:15:51.119Z,10.25
2023-09-09T03:18:20.350Z,10.48
2023-09-09T03:20:47.227Z,10.23
2023-09-09T03:23:20.474Z,10.52
2023-09-09T03:25:52.903Z,9.98
2023-09-09T03:28:24.282Z,10.45
2023-09-09T03:31:00.428Z,10.40
2023-09-09T03:33:38.850Z,9.85
2023-09-09T03:36:10.675Z,10.77
2023-09-09T03:38:40.636Z,9.95
2023-09-09T03:41:10.430Z,10.68
2023-09-09T03:43:39.210Z,9.77
2023-09-09T03:46:06.388Z,10.45
2023-09-09T03:48:56.996Z,10.23
2023-09-09T03:51:23.466Z,10.43
2023-09-09T03:53:50.374Z,10.98
2023-09-09T03:56:23.873Z,9.73
2023-09-09T03:58:53.833Z,10.55
2023-09-09T04:01:20.777Z,10.88
2023-09-09T04:03:52.064Z,11.07
2023-09-09T04:06:32.330Z,10.20
2023-09-09T04:14:20.878Z,11.02
2023-09-09T04:16:47.777Z,9.85
2023-09-09T04:19:17.758Z,10.05
2023-09-09T04:21:47.566Z,10.82
2023-09-09T04:24:16.956Z,10.45
2023-09-09T04:26:50.151Z,11.07
2023-09-09T04:29:37.087Z,11.05
2023-09-09T04:32:33.346Z,11.07
2023-09-09T04:35:49.355Z,10.88
2023-09-09T04:41:14.875Z,10.75
2023-09-09T04:47:00.497Z,11.27
2023-09-09T04:49:38.028Z,10.43
2023-09-09T04:52:44.260Z,10.52
2023-09-09T04:58:31.615Z,11.63
2023-09-09T05:01:04.858Z,10.90
2023-09-09T05:04:21.697Z,11.10
2023-09-09T05:15:17.261Z,11.23
2023-09-09T05:17:58.022Z,10.70
2023-09-09T05:20:51.783Z,11.60
2023-09-09T05:29:29.928Z,11.07
2023-09-09T05:31:56.564Z,11.40
2023-09-09T05:34:23.474Z,11.40
2023-09-09T05:36:52.978Z,11.43
2023-09-09T05:39:22.503Z,10.75
2023-09-09T05:41:49.219Z,11.40
2023-09-09T05:44:16.336Z,11.60
2023-09-09T05:46:46.141Z,11.85
2023-09-09T05:49:27.843Z,11.77
2023-09-09T05:52:04.632Z,12.65
2023-09-09T05:54:36.376Z,12.27
2023-09-09T05:57:03.062Z,12.00
2023-09-09T05:59:29.794Z,12.63
2023-09-09T06:01:56.509Z,12.13
2023-09-09T06:04:25.833Z,13.13
2023-09-09T06:06:52.807Z,13.05
2023-09-09T06:12:03.546Z,12.70
2023-09-09T06:14:30.424Z,12.60
2023-09-09T06:16:57.196Z,12.43
2023-09-09T06:19:28.035Z,12.02
2023-09-09T06:21:54.725Z,12.10
2023-09-09T06:24:28.927Z,12.90
2023-09-09T06:26:55.795Z,12.68
2023-09-09T06:29:58.484Z,12.93
2023-09-09T06:32:25.241Z,12.40
2023-09-09T06:34:51.966Z,11.90
2023-09-09T06:37:21.170Z,13.13
2023-09-09T06:42:44.858Z,12.43
2023-09-09T06:45:14.026Z,12.85
2023-09-09T06:47:47.230Z,12.98
2023-09-09T06:50:20.209Z,13.52
2023-09-09T06:53:19.261Z,12.80
2023-09-09T06:55:56.568Z,13.20
2023-09-09T06:58:43.577Z,12.98
2023-09-09T07:01:21.448Z,14.60
2023-09-09T07:03:53.906Z,13.20
2023-09-09T07:06:48.903Z,14.35
2023-09-09T07:09:44.907Z,12.95
2023-09-09T07:12:16.240Z,8.25
2023-09-09T07:14:49.306Z,13.20
2023-09-09T07:17:24.056Z,13.63
2023-09-09T07:19:53.797Z,13.23
2023-09-09T07:22:23.149Z,13.70
2023-09-09T07:25:10.070Z,13.93
2023-09-09T07:27:39.982Z,12.63
2023-09-09T07:30:07.798Z,12.75
2023-09-09T07:32:34.577Z,9.18
2023-09-09T07:35:05.449Z,13.43
2023-09-09T07:37:32.191Z,13.20
2023-09-09T07:40:00.243Z,14.15
2023-09-09T07:42:27.033Z,14.63
2023-09-09T07:44:54.848Z,15.85
2023-09-09T07:47:22.320Z,15.05
2023-09-09T07:49:50.141Z,13.95
2023-09-09T07:52:16.821Z,13.90
2023-09-09T07:54:43.619Z,12.98
2023-09-09T07:57:10.229Z,13.43
2023-09-09T07:59:42.804Z,14.45
2023-09-09T08:02:09.905Z,14.33
2023-09-09T08:04:45.516Z,14.20
2023-09-09T08:07:13.294Z,12.20
2023-09-09T08:09:41.153Z,13.25
2023-09-09T08:12:08.045Z,12.77
2023-09-09T08:14:35.218Z,12.35
2023-09-09T08:17:02.986Z,13.20
2023-09-09T08:19:30.443Z,13.30
2023-09-09T08:22:03.730Z,14.18
2023-09-09T08:24:38.890Z,12.82
2023-09-09T08:27:11.464Z,13.27
2023-09-09T08:29:38.136Z,13.13
2023-09-09T08:32:10.884Z,12.35
2023-09-09T08:34:38.718Z,13.20
2023-09-09T08:37:08.562Z,12.15
2023-09-09T08:39:35.377Z,12.10
2023-09-09T08:42:08.180Z,12.18
2023-09-09T08:44:46.015Z,12.50
2023-09-09T08:47:13.326Z,12.35
2023-09-09T08:49:48.078Z,11.20
2023-09-09T08:52:25.931Z,12.55
2023-09-09T08:54:54.009Z,11.65
2023-09-09T08:57:20.865Z,12.40
2023-09-09T08:59:49.199Z,11.63
2023-09-09T09:02:18.797Z,10.82
2023-09-09T09:04:59.672Z,11.15
2023-09-09T09:07:28.831Z,11.02
2023-09-09T09:09:56.127Z,11.40
2023-09-09T09:12:34.212Z,11.05
2023-09-09T09:15:06.907Z,9.77
2023-09-09T09:17:34.613Z,9.38
2023-09-09T09:20:01.423Z,9.20
2023-09-09T09:22:30.896Z,9.07
2023-09-09T09:24:57.576Z,8.98
2023-09-09T09:27:24.417Z,8.25
2023-09-09T09:29:51.185Z,9.02
2023-09-09T09:32:17.815Z,9.77
2023-09-09T09:34:47.995Z,9.73
2023-09-09T09:37:17.013Z,9.13
2023-09-09T09:39:46.405Z,8.80
2023-09-09T09:42:14.354Z,8.07
2023-09-09T09:44:41.461Z,8.43
2023-09-09T09:47:13.319Z,8.40
2023-09-09T09:49:49.676Z,8.82
2023-09-09T09:52:26.654Z,9.57
2023-09-09T09:54:54.442Z,8.70
2023-09-09T09:57:22.480Z,8.40
2023-09-09T09:59:49.424Z,8.85
2023-09-09T10:02:16.930Z,9.63
2023-09-09T10:04:44.493Z,8.70
2023-09-09T10:07:17.934Z,8.98
2023-09-09T10:10:00.433Z,9.88
2023-09-09T10:13:08.725Z,9.68
2023-09-09T10:15:36.582Z,10.23
2023-09-09T10:18:05.114Z,9.77
2023-09-09T10:20:32.220Z,9.63
2023-09-09T10:23:01.321Z,9.57
2023-09-09T10:25:29.000Z,9.25
2023-09-09T10:27:57.418Z,8.57
2023-09-09T10:30:25.322Z,8.30
2023-09-09T10:32:53.723Z,8.20
2023-09-09T10:35:21.549Z,8.18
2023-09-09T10:37:54.499Z,8.13
2023-09-09T10:40:22.015Z,8.35
2023-09-09T10:42:49.385Z,7.55
2023-09-09T10:45:30.825Z,7.95
2023-09-09T10:48:01.900Z,7.60
2023-09-09T10:50:46.117Z,6.65
2023-09-09T10:53:28.944Z,7.30
2023-09-09T10:55:59.996Z,7.45
2023-09-09T10:58:35.483Z,7.60
2023-09-09T11:01:02.949Z,8.05
2023-09-09T11:03:42.433Z,10.00
2023-09-09T11:06:30.899Z,8.93
2023-09-09T11:09:03.979Z,8.82
2023-09-09T11:11:39.057Z,8.27
2023-09-09T11:14:07.435Z,8.63
2023-09-09T11:16:38.121Z,8.73
2023-09-09T11:19:15.661Z,8.15
2023-09-09T11:21:45.952Z,8.70
2023-09-09T11:24:13.199Z,8.60
2023-09-09T11:26:41.848Z,8.38
2023-09-09T11:29:14.836Z,7.55
2023-09-09T11:31:53.790Z,8.40
2023-09-09T11:34:33.998Z,8.15
2023-09-09T11:37:02.410Z,8.05
2023-09-09T11:39:29.662Z,7.97
2023-09-09T11:41:56.515Z,8.05
2023-09-09T11:44:23.113Z,7.53
2023-09-09T11:46:53.082Z,7.55
2023-09-09T11:49:20.403Z,7.68
2023-09-09T11:51:47.455Z,7.65
2023-09-09T11:54:21.940Z,7.18
2023-09-09T11:56:49.084Z,8.50
2023-09-09T11:59:16.868Z,7.07
2023-09-09T12:01:45.292Z,7.18
2023-09-09T12:04:14.487Z,7.40
2023-09-09T12:06:44.513Z,7.00
2023-09-09T12:09:11.577Z,7.57
2023-09-09T12:11:41.348Z,7.28
2023-09-09T12:14:08.412Z,7.70
2023-09-09T12:16:36.467Z,7.20
2023-09-09T12:19:03.315Z,7.05
2023-09-09T12:21:31.063Z,6.50
2023-09-09T12:23:59.605Z,6.97
2023-09-09T12:26:27.662Z,6.75
2023-09-09T12:29:11.462Z,6.97
2023-09-09T12:31:52.233Z,7.00
2023-09-09T12:34:20.957Z,7.65
2023-09-09T12:36:52.129Z,7.35
2023-09-09T12:39:29.658Z,7.30
2023-09-09T12:42:03.535Z,7.35
2023-09-09T12:44:35.499Z,6.63
2023-09-09T12:47:06.543Z,7.18
2023-09-09T12:49:33.852Z,6.75
2023-09-09T12:52:00.545Z,7.50
2023-09-09T12:54:27.296Z,7.22
2023-09-09T12:56:53.981Z,7.80
2023-09-09T12:59:20.715Z,7.10
2023-09-09T13:01:49.395Z,6.78
2023-09-09T13:04:16.132Z,7.32
2023-09-09T13:06:42.899Z,6.57
2023-09-09T13:09:09.481Z,6.50
2023-09-09T13:11:36.362Z,6.40
2023-09-09T13:14:13.274Z,6.32
2023-09-09T13:16:47.133Z,6.63
2023-09-09T13:19:13.859Z,7.53
2023-09-09T13:21:40.466Z,7.38
2023-09-09T13:24:07.346Z,7.65
2023-09-09T13:26:34.243Z,7.85
2023-09-09T13:29:00.805Z,7.85
2023-09-09T13:31:27.439Z,7.05
2023-09-09T13:33:54.064Z,6.90
2023-09-09T13:36:20.682Z,7.03
2023-09-09T13:38:47.705Z,7.55
2023-09-09T13:41:14.831Z,6.35
2023-09-09T13:43:41.517Z,7.15
2023-09-09T13:46:08.274Z,7.03
2023-09-09T13:48:35.174Z,6.80
2023-09-09T13:51:01.801Z,7.22
2023-09-09T13:53:28.425Z,7.13
2023-09-09T13:55:57.312Z,6.88
2023-09-09T13:58:23.839Z,7.25
2023-09-09T14:00:52.275Z,7.05
2023-09-09T14:03:21.064Z,7.05
2023-09-09T14:05:47.823Z,7.38
2023-09-09T14:08:14.494Z,7.07
2023-09-09T14:10:41.285Z,7.28
2023-09-09T14:13:07.883Z,7.78
2023-09-09T14:15:34.498Z,7.22
2023-09-09T14:18:01.184Z,7.78
2023-09-09T14:20:27.892Z,7.55
2023-09-09T14:22:54.780Z,7.43
2023-09-09T14:25:21.506Z,7.57
2023-09-09T14:27:48.066Z,7.30
2023-09-09T14:30:14.946Z,7.65
2023-09-09T14:32:41.605Z,7.80
2023-09-09T14:35:08.490Z,7.43
2023-09-09T14:37:35.129Z,7.55
2023-09-09T14:40:03.657Z,7.47
2023-09-09T14:42:30.289Z,7.85
2023-09-09T14:44:56.891Z,8.18
2023-09-09T14:47:23.788Z,7.97
2023-09-09T14:49:50.438Z,7.47
2023-09-09T14:52:17.400Z,7.80
2023-09-09T14:54:44.069Z,7.75
2023-09-09T14:57:10.751Z,8.00
2023-09-09T14:59:37.359Z,7.72
2023-09-09T15:02:04.168Z,7.72
2023-09-09T15:04:30.847Z,7.80
2023-09-09T15:06:57.909Z,7.60
2023-09-09T15:09:24.521Z,7.88
2023-09-09T15:11:51.122Z,7.70
2023-09-09T15:14:17.790Z,7.75
2023-09-09T15:16:49.501Z,8.05
2023-09-09T15:19:16.502Z,7.53
2023-09-09T15:21:43.262Z,8.40
2023-09-09T15:24:11.129Z,7.70
2023-09-09T15:26:38.858Z,7.45
2023-09-09T15:29:06.414Z,7.57
2023-09-09T15:31:35.287Z,7.38
2023-09-09T15:34:02.388Z,7.70
2023-09-09T15:36:29.116Z,7.88
2023-09-09T15:38:55.837Z,8.30
2023-09-09T15:41:24.344Z,7.90
2023-09-09T15:43:52.241Z,7.70
2023-09-09T15:46:19.104Z,7.88
2023-09-09T15:48:45.789Z,7.55
2023-09-09T15:51:12.369Z,7.88
2023-09-09T15:53:38.931Z,7.88
2023-09-09T15:56:11.375Z,7.90
2023-09-09T15:58:38.496Z,7.80
2023-09-09T16:01:05.440Z,7.70
2023-09-09T16:03:33.412Z,8.05
2023-09-09T16:06:06.988Z,7.80
2023-09-09T16:08:38.716Z,7.90
2023-09-09T16:11:06.045Z,7.57
2023-09-09T16:13:33.577Z,7.68
2023-09-09T16:16:02.894Z,7.57
2023-09-09T16:18:31.427Z,7.47
2023-09-09T16:20:58.901Z,7.35
2023-09-09T16:23:25.519Z,7.55
2023-09-09T16:25:54.111Z,7.63
2023-09-09T16:28:21.411Z,7.50
2023-09-09T16:30:50.665Z,8.15
2023-09-09T16:33:17.681Z,8.40
2023-09-09T16:35:45.692Z,7.43
2023-09-09T16:38:12.834Z,7.55
2023-09-09T16:40:40.096Z,7.57
2023-09-09T16:43:06.987Z,7.57
2023-09-09T16:45:33.889Z,8.18
2023-09-09T16:48:03.543Z,8.02
2023-09-09T16:50:31.438Z,7.82
2023-09-09T16:52:58.554Z,8.02
2023-09-09T16:55:25.451Z,8.20
2023-09-09T16:57:52.082Z,7.97
2023-09-09T17:00:18.860Z,8.10
2023-09-09T17:02:45.574Z,7.82
2023-09-09T17:05:12.348Z,8.15
2023-09-09T17:07:39.053Z,7.88
2023-09-09T17:10:06.489Z,8.07
2023-09-09T17:12:33.155Z,8.15
2023-09-09T17:14:59.780Z,8.43
2023-09-09T17:17:26.508Z,8.38
2023-09-09T17:19:53.215Z,8.27
2023-09-09T17:22:19.968Z,8.23
2023-09-09T17:24:48.842Z,7.95
2023-09-09T17:27:15.593Z,7.68
2023-09-09T17:29:43.814Z,8.30
2023-09-09T17:32:11.063Z,9.07
2023-09-09T17:34:42.719Z,8.88
2023-09-09T17:37:10.255Z,9.23
2023-09-09T17:39:36.924Z,9.75
2023-09-09T17:42:03.607Z,9.55
2023-09-09T17:44:30.246Z,9.93
2023-09-09T17:46:57.107Z,9.82
2023-09-09T17:49:26.817Z,9.18
2023-09-09T17:52:08.188Z,8.73
2023-09-09T17:54:36.350Z,9.40
2023-09-09T17:57:03.387Z,11.25
2023-09-09T17:59:29.950Z,10.35
2023-09-09T18:01:56.595Z,11.32
2023-09-09T18:04:23.255Z,11.57
2023-09-09T18:06:50.159Z,10.70
2023-09-09T18:09:17.712Z,10.15
2023-09-09T18:11:44.430Z,12.25
2023-09-09T18:14:11.075Z,12.02
2023-09-09T18:16:38.107Z,11.32
2023-09-09T18:19:04.885Z,11.68
2023-09-09T18:21:31.455Z,10.68
2023-09-09T18:23:58.092Z,10.88
2023-09-09T18:26:24.801Z,10.85
2023-09-09T18:28:51.915Z,11.05
2023-09-09T18:31:20.444Z,11.45
2023-09-09T18:33:47.599Z,12.20
2023-09-09T18:36:14.632Z,15.57
2023-09-09T18:38:43.346Z,19.15
2023-09-09T18:41:11.185Z,17.33
2023-09-09T18:43:37.913Z,11.10
2023-09-09T18:46:05.357Z,10.27
2023-09-09T18:48:32.293Z,9.30
2023-09-09T18:50:58.968Z,9.98
2023-09-09T18:53:28.240Z,9.80
2023-09-09T18:55:54.964Z,9.68
2023-09-09T18:58:22.621Z,10.20
2023-09-09T19:00:53.273Z,9.20
2023-09-09T19:03:21.721Z,9.13
2023-09-09T19:05:48.587Z,11.48
2023-09-09T19:08:16.035Z,12.45
2023-09-09T19:10:42.973Z,10.55
2023-09-09T19:13:13.189Z,9.75
2023-09-09T19:15:40.316Z,10.90
2023-09-09T19:18:07.633Z,13.18
2023-09-09T19:20:35.449Z,13.15
2023-09-09T19:23:02.271Z,12.05
2023-09-09T19:25:28.928Z,10.80
2023-09-09T19:27:55.589Z,10.40
2023-09-09T19:30:22.579Z,10.52
2023-09-09T19:32:49.414Z,12.60
2023-09-09T19:35:16.000Z,12.73
2023-09-09T19:37:42.972Z,13.18
2023-09-09T19:40:10.001Z,12.73
2023-09-09T19:42:36.661Z,12.25
2023-09-09T19:45:11.424Z,11.20
2023-09-09T19:47:38.306Z,11.18
2023-09-09T19:50:05.494Z,11.98
2023-09-09T19:52:32.170Z,11.57
2023-09-09T19:54:58.835Z,11.27
2023-09-09T19:57:25.380Z,10.38
2023-09-09T19:59:52.048Z,11.30
2023-09-09T20:02:18.644Z,10.80
2023-09-09T20:04:45.367Z,10.85
2023-09-09T20:07:12.075Z,12.15
2023-09-09T20:09:39.684Z,14.80
2023-09-09T20:12:06.737Z,12.02
2023-09-09T20:14:33.562Z,12.52
2023-09-09T20:17:00.234Z,12.10
2023-09-09T20:19:26.922Z,12.70
2023-09-09T20:21:53.558Z,11.80
2023-09-09T20:24:20.072Z,11.73
2023-09-09T20:26:46.772Z,11.60
2023-09-09T20:29:13.368Z,12.10
2023-09-09T20:31:40.035Z,11.80
2023-09-09T20:34:07.292Z,11.15
2023-09-09T20:36:33.954Z,10.77
2023-09-09T20:39:00.759Z,11.35
2023-09-09T20:41:27.354Z,11.32
2023-09-09T20:43:53.935Z,12.40
2023-09-09T20:46:20.625Z,11.60
2023-09-09T20:48:47.220Z,11.50
2023-09-09T20:51:13.827Z,12.52
2023-09-09T20:53:40.394Z,12.43
2023-09-09T20:56:13.718Z,12.95
2023-09-09T21:01:10.511Z,12.48
2023-09-09T21:03:37.531Z,12.65
2023-09-09T21:06:04.255Z,12.10
2023-09-09T21:08:30.836Z,12.40
2023-09-09T21:10:57.957Z,12.38
2023-09-09T21:13:24.806Z,12.80
2023-09-09T21:15:51.981Z,12.55
2023-09-09T21:18:18.827Z,13.13
2023-09-09T21:20:46.009Z,12.30
2023-09-09T21:23:13.498Z,12.48
2023-09-09T21:25:41.387Z,11.73
2023-09-09T21:28:08.952Z,11.57
2023-09-09T21:30:36.113Z,12.15
2023-09-09T21:33:04.011Z,12.90
2023-09-09T21:35:30.752Z,11.85
2023-09-09T21:37:57.422Z,12.52
2023-09-09T21:40:24.071Z,11.88
2023-09-09T21:42:50.675Z,12.43
2023-09-09T21:45:17.390Z,12.55
2023-09-09T21:47:44.114Z,12.27
2023-09-09T21:50:10.877Z,11.93
2023-09-09T21:52:37.529Z,12.50
2023-09-09T21:55:04.421Z,12.50
2023-09-09T21:57:31.092Z,12.48
2023-09-09T21:59:58.954Z,12.75
2023-09-09T22:02:25.666Z,13.10
2023-09-09T22:04:52.383Z,13.32
2023-09-09T22:07:20.655Z,14.07
2023-09-09T22:09:47.771Z,13.20
2023-09-09T22:12:14.470Z,13.10
2023-09-09T22:14:44.161Z,12.77
2023-09-09T22:17:12.406Z,12.77
2023-09-09T22:19:39.054Z,12.13
2023-09-09T22:22:05.740Z,12.90
2023-09-09T22:24:32.326Z,12.52
2023-09-09T22:27:00.661Z,12.43
2023-09-09T22:29:27.958Z,13.23
2023-09-09T22:31:54.932Z,13.05
2023-09-09T22:34:21.617Z,12.50
2023-09-09T22:36:48.278Z,12.32
2023-09-09T22:39:15.158Z,12.50
2023-09-09T22:41:41.794Z,12.73
2023-09-09T22:44:08.582Z,12.43
2023-09-09T22:46:35.300Z,12.57
2023-09-09T22:49:01.941Z,12.82
2023-09-09T22:51:28.591Z,11.80
2023-09-09T22:53:55.251Z,12.15
2023-09-09T22:56:21.931Z,12.30
2023-09-09T22:58:48.563Z,11.43
2023-09-09T23:01:17.902Z,11.98
2023-09-09T23:03:44.976Z,12.52
2023-09-09T23:06:11.991Z,12.10
2023-09-09T23:08:38.888Z,11.65
2023-09-09T23:11:13.604Z,12.30
2023-09-09T23:13:40.905Z,12.65
2023-09-09T23:16:07.721Z,11.63
2023-09-09T23:18:34.601Z,12.13
2023-09-09T23:21:01.289Z,12.90
2023-09-09T23:23:27.968Z,12.40
2023-09-09T23:25:56.018Z,12.30
2023-09-09T23:28:22.733Z,11.35
2023-09-09T23:31:01.440Z,12.45
2023-09-09T23:33:37.360Z,11.18
2023-09-09T23:36:04.785Z,11.40
2023-09-09T23:38:32.319Z,11.15
2023-09-09T23:40:59.221Z,12.18
2023-09-09T23:43:26.488Z,11.65
2023-09-09T23:45:53.549Z,11.48
2023-09-09T23:48:20.375Z,11.55
2023-09-09T23:50:47.115Z,12.05
2023-09-09T23:53:14.049Z,11.70
2023-09-09T23:55:40.738Z,12.07
2023-09-09T23:58:07.387Z,11.98
